sensor_id;sensor_type;location;lat;lon;timestamp;P1;P2;P0
68198;PMS7003;55021;51.554;17.044;2023-07-16T00:06:05;24.25;22.00;14.75
68198;PMS7003;55021;51.554;17.044;2023-07-16T00:21:07;25.75;24.50;16.75
68198;PMS7003;55021;51.554;17.044;2023-07-16T00:36:09;24.75;22.50;16.50
68198;PMS7003;55021;51.554;17.044;2023-07-16T00:51:14;25.25;22.50;15.75
68198;PMS7003;55021;51.554;17.044;2023-07-16T01:06:18;24.25;23.25;16.75
68198;PMS7003;55021;51.554;17.044;2023-07-16T01:21:27;24.75;21.00;14.00
68198;PMS7003;55021;51.554;17.044;2023-07-16T01:36:36;23.25;22.00;16.00
68198;PMS7003;55021;51.554;17.044;2023-07-16T01:51:41;24.00;23.25;15.25
68198;PMS7003;55021;51.554;17.044;2023-07-16T02:06:43;22.00;21.00;14.00
68198;PMS7003;55021;51.554;17.044;2023-07-16T02:21:46;26.25;21.00;14.75
68198;PMS7003;55021;51.554;17.044;2023-07-16T02:36:48;22.00;20.50;13.25
68198;PMS7003;55021;51.554;17.044;2023-07-16T02:51:54;21.25;21.25;14.25
68198;PMS7003;55021;51.554;17.044;2023-07-16T03:07:00;24.00;23.00;14.00
68198;PMS7003;55021;51.554;17.044;2023-07-16T03:22:04;23.25;21.00;12.75
68198;PMS7003;55021;51.554;17.044;2023-07-16T03:37:07;21.25;19.75;13.75
68198;PMS7003;55021;51.554;17.044;2023-07-16T03:52:13;19.75;19.00;11.75
68198;PMS7003;55021;51.554;17.044;2023-07-16T04:07:17;18.25;18.00;12.00
68198;PMS7003;55021;51.554;17.044;2023-07-16T04:22:20;22.00;19.25;12.25
68198;PMS7003;55021;51.554;17.044;2023-07-16T04:37:22;22.25;21.25;14.25
68198;PMS7003;55021;51.554;17.044;2023-07-16T04:52:25;20.50;20.00;13.50
68198;PMS7003;55021;51.554;17.044;2023-07-16T05:07:27;22.50;21.25;14.50
68198;PMS7003;55021;51.554;17.044;2023-07-16T05:22:30;24.00;20.25;14.00
68198;PMS7003;55021;51.554;17.044;2023-07-16T05:37:32;23.50;19.50;13.00
68198;PMS7003;55021;51.554;17.044;2023-07-16T05:52:34;21.50;19.25;13.50
68198;PMS7003;55021;51.554;17.044;2023-07-16T06:07:38;18.50;17.00;11.50
68198;PMS7003;55021;51.554;17.044;2023-07-16T06:22:41;16.75;15.00;10.25
68198;PMS7003;55021;51.554;17.044;2023-07-16T06:37:43;11.00;11.00;7.00
68198;PMS7003;55021;51.554;17.044;2023-07-16T06:52:46;13.00;10.75;6.25
68198;PMS7003;55021;51.554;17.044;2023-07-16T07:07:48;10.75;10.00;5.00
68198;PMS7003;55021;51.554;17.044;2023-07-16T07:22:51;9.50;9.25;5.25
68198;PMS7003;55021;51.554;17.044;2023-07-16T07:37:53;10.75;10.00;6.00
68198;PMS7003;55021;51.554;17.044;2023-07-16T07:52:58;9.50;9.25;5.00
68198;PMS7003;55021;51.554;17.044;2023-07-16T08:08:01;12.75;12.00;7.75
68198;PMS7003;55021;51.554;17.044;2023-07-16T08:23:03;7.25;7.25;3.00
68198;PMS7003;55021;51.554;17.044;2023-07-16T08:38:08;10.50;9.50;4.50
68198;PMS7003;55021;51.554;17.044;2023-07-16T08:53:10;7.00;7.00;3.00
68198;PMS7003;55021;51.554;17.044;2023-07-16T09:08:14;9.00;7.50;3.00
68198;PMS7003;55021;51.554;17.044;2023-07-16T09:23:18;7.00;7.00;3.00
68198;PMS7003;55021;51.554;17.044;2023-07-16T09:38:24;7.00;7.00;3.00
68198;PMS7003;55021;51.554;17.044;2023-07-16T09:53:26;7.00;7.00;3.00
68198;PMS7003;55021;51.554;17.044;2023-07-16T10:08:35;7.25;7.25;4.00
68198;PMS7003;55021;51.554;17.044;2023-07-16T10:23:38;7.75;7.75;3.75
68198;PMS7003;55021;51.554;17.044;2023-07-16T10:38:41;6.75;6.75;3.00
68198;PMS7003;55021;51.554;17.044;2023-07-16T10:53:44;7.00;6.00;2.75
68198;PMS7003;55021;51.554;17.044;2023-07-16T11:24:13;8.00;7.00;3.00
68198;PMS7003;55021;51.554;17.044;2023-07-16T11:39:17;8.25;7.25;3.25
68198;PMS7003;55021;51.554;17.044;2023-07-16T11:54:20;7.00;7.00;3.25
68198;PMS7003;55021;51.554;17.044;2023-07-16T12:24:45;7.50;7.50;3.00
68198;PMS7003;55021;51.554;17.044;2023-07-16T12:39:48;7.00;7.00;3.00
68198;PMS7003;55021;51.554;17.044;2023-07-16T12:54:52;8.00;7.00;3.75
68198;PMS7003;55021;51.554;17.044;2023-07-16T13:09:54;6.25;6.25;3.00
68198;PMS7003;55021;51.554;17.044;2023-07-16T13:24:57;7.00;7.00;3.00
68198;PMS7003;55021;51.554;17.044;2023-07-16T13:39:59;7.25;7.00;3.00
68198;PMS7003;55021;51.554;17.044;2023-07-16T13:55:03;8.25;8.25;4.25
68198;PMS7003;55021;51.554;17.044;2023-07-16T14:10:07;9.00;8.50;4.00
68198;PMS7003;55021;51.554;17.044;2023-07-16T14:25:10;7.50;7.50;3.25
68198;PMS7003;55021;51.554;17.044;2023-07-16T14:40:12;9.25;9.25;5.25
68198;PMS7003;55021;51.554;17.044;2023-07-16T14:55:17;7.25;7.25;3.75
68198;PMS7003;55021;51.554;17.044;2023-07-16T15:10:20;8.00;8.00;4.25
68198;PMS7003;55021;51.554;17.044;2023-07-16T15:25:26;8.50;8.50;5.00
68198;PMS7003;55021;51.554;17.044;2023-07-16T15:40:28;10.00;10.00;6.25
68198;PMS7003;55021;51.554;17.044;2023-07-16T15:55:37;11.50;11.50;7.25
68198;PMS7003;55021;51.554;17.044;2023-07-16T16:10:40;14.00;13.50;8.00
68198;PMS7003;55021;51.554;17.044;2023-07-16T16:25:44;12.50;12.25;7.00
68198;PMS7003;55021;51.554;17.044;2023-07-16T16:40:46;12.00;11.00;6.00
68198;PMS7003;55021;51.554;17.044;2023-07-16T16:55:49;12.25;12.25;8.00
68198;PMS7003;55021;51.554;17.044;2023-07-16T17:10:51;14.25;12.75;7.25
68198;PMS7003;55021;51.554;17.044;2023-07-16T17:25:54;12.00;12.00;7.00
68198;PMS7003;55021;51.554;17.044;2023-07-16T17:40:57;14.00;14.00;9.00
68198;PMS7003;55021;51.554;17.044;2023-07-16T17:55:59;13.75;13.00;8.00
68198;PMS7003;55021;51.554;17.044;2023-07-16T18:11:02;18.75;18.00;11.00
68198;PMS7003;55021;51.554;17.044;2023-07-16T18:26:05;15.00;13.00;8.00
68198;PMS7003;55021;51.554;17.044;2023-07-16T18:57:02;15.75;14.50;9.00
68198;PMS7003;55021;51.554;17.044;2023-07-16T19:12:05;18.25;18.25;11.25
68198;PMS7003;55021;51.554;17.044;2023-07-16T19:27:08;17.25;16.25;10.00
68198;PMS7003;55021;51.554;17.044;2023-07-16T19:42:10;17.50;17.50;11.00
68198;PMS7003;55021;51.554;17.044;2023-07-16T19:57:13;19.00;19.00;11.25
68198;PMS7003;55021;51.554;17.044;2023-07-16T20:12:25;20.25;18.75;12.00
68198;PMS7003;55021;51.554;17.044;2023-07-16T20:27:28;20.00;19.75;12.50
68198;PMS7003;55021;51.554;17.044;2023-07-16T20:58:31;23.25;20.25;14.00
68198;PMS7003;55021;51.554;17.044;2023-07-16T21:13:36;22.00;21.00;13.50
68198;PMS7003;55021;51.554;17.044;2023-07-16T21:28:40;22.75;21.00;14.00
68198;PMS7003;55021;51.554;17.044;2023-07-16T21:43:55;20.75;20.75;13.00
68198;PMS7003;55021;51.554;17.044;2023-07-16T21:59:51;24.75;22.00;13.25
68198;PMS7003;55021;51.554;17.044;2023-07-16T22:14:53;23.50;22.25;12.50
68198;PMS7003;55021;51.554;17.044;2023-07-16T22:30:01;26.00;25.50;17.50
